Time;durP1;ratioP1;P1;durP2;ratioP2;P2;SDS_P1;SDS_P2;PMS_P1;PMS_P2;Temp;Humidity;BMP_temperature;BMP_pressure;BME280_temperature;BME280_humidity;BME280_pressure;Samples;Min_cycle;Max_cycle;Signal;HPM_P1;HPM_P2
2023/03/16 00:00:39;;;;;;;1.20;1.10;;;-0.10;97.30;;;;;;5059605;28;20182;-78
2023/03/16 00:03:04;;;;;;;2.23;2.03;;;-0.10;97.30;;;;;;5056273;28;20180;-79
2023/03/16 00:05:30;;;;;;;1.50;1.40;;;-0.10;97.30;;;;;;5051009;28;20425;-78
2023/03/16 00:07:56;;;;;;;3.07;2.87;;;-0.10;97.30;;;;;;5056436;28;20206;-78
2023/03/16 00:10:26;;;;;;;1.10;1.00;;;-0.20;97.30;;;;;;5061665;28;20774;-79
2023/03/16 00:12:55;;;;;;;1.50;1.40;;;-0.20;97.30;;;;;;5069653;28;20650;-80
2023/03/16 00:15:21;;;;;;;1.20;1.10;;;-0.20;97.30;;;;;;5052859;28;20492;-79
2023/03/16 00:17:47;;;;;;;1.40;1.30;;;-0.30;97.30;;;;;;5070292;28;20457;-79
2023/03/16 00:20:17;;;;;;;2.83;2.00;;;-0.30;97.30;;;;;;5069133;28;20475;-78
2023/03/16 00:22:44;;;;;;;9.30;2.60;;;-0.30;97.30;;;;;;5052730;28;20258;-78
2023/03/16 00:25:11;;;;;;;1.30;1.20;;;-0.40;97.30;;;;;;5049987;28;20391;-78
2023/03/16 00:27:37;;;;;;;1.50;1.40;;;-0.40;97.30;;;;;;5057030;28;20795;-79
2023/03/16 00:30:03;;;;;;;1.20;1.10;;;-0.50;97.30;;;;;;5055710;28;20515;-80
2023/03/16 00:32:31;;;;;;;1.63;1.53;;;-0.50;97.30;;;;;;5055372;28;20206;-79
2023/03/16 00:34:57;;;;;;;1.30;1.20;;;-0.50;97.30;;;;;;5056233;28;20507;-82
2023/03/16 00:37:24;;;;;;;1.33;1.23;;;-0.50;97.30;;;;;;5063433;28;20448;-78
2023/03/16 00:39:50;;;;;;;1.50;1.40;;;-0.50;97.30;;;;;;5050566;28;20202;-79
2023/03/16 00:42:17;;;;;;;2.43;2.23;;;-0.50;97.30;;;;;;5057370;28;20665;-79
2023/03/16 00:44:42;;;;;;;1.00;0.90;;;-0.50;97.30;;;;;;5057343;28;20424;-79
2023/03/16 00:47:13;;;;;;;1.20;1.10;;;-0.60;97.30;;;;;;5075645;28;20423;-77
2023/03/16 00:49:38;;;;;;;7.17;2.10;;;-0.50;97.30;;;;;;5074214;28;20213;-78
2023/03/16 00:52:06;;;;;;;1.30;1.20;;;-0.60;97.30;;;;;;5056344;28;20434;-79
2023/03/16 00:54:31;;;;;;;1.50;1.40;;;-0.60;97.30;;;;;;5063598;28;20168;-79
2023/03/16 00:57:01;;;;;;;30.20;1.87;;;-0.70;97.30;;;;;;5057464;28;20447;-80
2023/03/16 00:59:28;;;;;;;2.47;2.27;;;-0.70;97.30;;;;;;5056720;28;20636;-81
2023/03/16 01:01:54;;;;;;;1.47;1.37;;;-0.80;97.30;;;;;;5067222;28;20450;-82
2023/03/16 01:04:20;;;;;;;1.10;1.00;;;-0.80;97.30;;;;;;5059492;28;20424;-80
2023/03/16 01:06:46;;;;;;;1.20;1.10;;;-0.80;97.30;;;;;;5064316;28;20428;-83
2023/03/16 01:09:13;;;;;;;2.00;1.73;;;-0.80;97.30;;;;;;5078811;28;20419;-81
2023/03/16 01:11:41;;;;;;;1.73;1.63;;;-0.90;97.30;;;;;;5049350;28;20687;-80
2023/03/16 01:14:08;;;;;;;1.30;1.27;;;-0.80;97.30;;;;;;5061067;28;20402;-80
2023/03/16 01:16:33;;;;;;;1.77;1.43;;;-0.90;97.30;;;;;;5050954;28;20412;-80
2023/03/16 01:19:00;;;;;;;1.27;1.17;;;-0.90;97.30;;;;;;5056439;28;20461;-80
2023/03/16 01:21:26;;;;;;;1.43;1.33;;;-1.00;97.30;;;;;;5058081;28;20174;-84
2023/03/16 01:23:52;;;;;;;1.63;1.57;;;-1.00;97.30;;;;;;5062711;28;20919;-80
2023/03/16 01:26:19;;;;;;;2.73;2.23;;;-1.00;97.30;;;;;;5055154;28;20424;-80
2023/03/16 01:28:45;;;;;;;2.07;1.93;;;-1.00;97.30;;;;;;5064238;28;20441;-80
2023/03/16 01:31:13;;;;;;;2.97;1.97;;;-1.00;97.30;;;;;;5056143;28;20241;-79
2023/03/16 01:33:40;;;;;;;1.30;1.20;;;-1.00;97.30;;;;;;5075769;28;20437;-80
2023/03/16 01:36:09;;;;;;;1.30;1.20;;;-1.00;97.30;;;;;;5056768;28;20405;-84
2023/03/16 01:38:35;;;;;;;4.67;1.73;;;-1.10;97.30;;;;;;5059190;28;20234;-83
2023/03/16 01:41:01;;;;;;;1.20;1.10;;;-1.10;97.30;;;;;;5061198;28;20513;-83
2023/03/16 01:43:29;;;;;;;174.93;16.63;;;-1.10;97.30;;;;;;5061658;28;20265;-84
2023/03/16 01:46:04;;;;;;;4.53;2.77;;;-1.10;97.30;;;;;;5067795;28;20199;-84
2023/03/16 01:49:08;;;;;;;2.80;2.60;;;-1.20;97.30;;;;;;5083297;28;20425;-83
2023/03/16 01:51:52;;;;;;;1.67;1.57;;;-1.20;97.30;;;;;;5059970;28;20495;-84
2023/03/16 01:54:41;;;;;;;1.30;1.20;;;-1.20;97.30;;;;;;5060342;28;20458;-83
2023/03/16 01:57:17;;;;;;;1.20;1.10;;;-1.30;97.30;;;;;;5058584;28;20512;-83
2023/03/16 01:59:51;;;;;;;1.37;1.27;;;-1.30;97.30;;;;;;5060452;28;20398;-85
2023/03/16 02:02:29;;;;;;;1.70;1.60;;;-1.30;97.30;;;;;;5052810;28;20410;-86
2023/03/16 02:05:01;;;;;;;1.40;1.30;;;-1.30;97.30;;;;;;5056676;28;21063;-85
2023/03/16 02:07:29;;;;;;;1.30;1.20;;;-1.30;97.30;;;;;;5062626;28;20248;-83
2023/03/16 02:10:01;;;;;;;1.57;1.47;;;-1.30;97.30;;;;;;5057458;28;20789;-84
2023/03/16 02:12:28;;;;;;;1.20;1.10;;;-1.30;97.30;;;;;;5059934;28;20984;-85
2023/03/16 02:14:53;;;;;;;1.17;1.07;;;-1.30;97.30;;;;;;5051790;28;20199;-85
2023/03/16 02:17:22;;;;;;;1.20;1.10;;;-1.30;97.30;;;;;;5060205;28;20410;-84
2023/03/16 02:20:12;;;;;;;1.30;1.20;;;-1.40;97.30;;;;;;5045239;28;20688;-85
2023/03/16 02:22:42;;;;;;;1.30;1.20;;;-1.40;97.30;;;;;;5065051;28;20431;-84
2023/03/16 02:25:09;;;;;;;1.30;1.20;;;-1.40;97.30;;;;;;5042145;28;20538;-85
2023/03/16 02:27:50;;;;;;;3.90;2.25;;;-1.40;97.30;;;;;;5047867;28;20622;-84
2023/03/16 02:30:18;;;;;;;1.20;1.10;;;-1.50;97.30;;;;;;5045378;28;20411;-85
2023/03/16 02:32:46;;;;;;;1.05;0.95;;;-1.50;97.30;;;;;;5033485;28;20420;-85
2023/03/16 02:35:13;;;;;;;1.20;1.10;;;-1.50;97.30;;;;;;5058493;28;20412;-84
2023/03/16 02:37:40;;;;;;;1.40;1.30;;;-1.50;97.30;;;;;;5042048;28;20449;-85
2023/03/16 02:40:23;;;;;;;1.40;1.30;;;-1.50;97.30;;;;;;5039305;28;20418;-85
2023/03/16 02:42:57;;;;;;;;;;;-1.50;97.30;;;;;;5041001;28;20414;-86
2023/03/16 02:45:27;;;;;;;1.30;1.20;;;-1.50;97.30;;;;;;5040460;28;20230;-85
2023/03/16 02:47:54;;;;;;;1.20;1.10;;;-1.50;97.30;;;;;;5044519;28;20509;-86
2023/03/16 02:50:20;;;;;;;1.00;0.90;;;-1.50;97.30;;;;;;5048230;28;20439;-85
2023/03/16 02:52:47;;;;;;;1.30;1.20;;;-1.50;97.30;;;;;;5044101;28;20422;-85
2023/03/16 02:55:12;;;;;;;1.10;1.00;;;-1.60;97.30;;;;;;5052491;28;20223;-82
2023/03/16 02:57:38;;;;;;;1.75;1.65;;;-1.50;97.30;;;;;;5042960;28;20437;-85
2023/03/16 03:00:11;;;;;;;2.30;2.10;;;-1.60;97.30;;;;;;5044084;28;20583;-83
2023/03/16 03:02:37;;;;;;;1.23;1.13;;;-1.60;97.30;;;;;;5053230;28;20220;-85
2023/03/16 03:05:02;;;;;;;1.30;1.20;;;-1.60;97.30;;;;;;5043399;28;20823;-85
2023/03/16 03:07:30;;;;;;;1.73;1.60;;;-1.60;97.30;;;;;;5043763;28;20287;-86
2023/03/16 03:09:56;;;;;;;1.37;1.27;;;-1.60;97.30;;;;;;5042471;28;20176;-84
2023/03/16 03:12:22;;;;;;;1.65;1.55;;;-1.70;97.30;;;;;;5061968;28;20688;-84
2023/03/16 03:14:47;;;;;;;1.60;1.50;;;-1.70;97.30;;;;;;5041153;28;20241;-85
2023/03/16 03:17:13;;;;;;;;;;;-1.70;97.30;;;;;;5044128;28;20522;-84
2023/03/16 03:19:38;;;;;;;;;;;-1.70;97.30;;;;;;5045668;28;20173;-85
2023/03/16 03:22:05;;;;;;;;;;;-1.70;97.30;;;;;;5039858;28;20240;-84
2023/03/16 03:24:32;;;;;;;1.40;1.30;;;-1.70;97.30;;;;;;5044387;28;20170;-84
2023/03/16 03:27:04;;;;;;;1.30;1.20;;;-1.80;97.30;;;;;;5047639;28;21063;-84
2023/03/16 03:29:33;;;;;;;1.40;1.30;;;-1.80;97.30;;;;;;5045901;28;20238;-85
2023/03/16 03:32:00;;;;;;;1.23;1.13;;;-1.90;97.30;;;;;;5044172;28;20468;-85
2023/03/16 03:34:26;;;;;;;1.60;1.50;;;-1.90;97.30;;;;;;5050158;28;20506;-84
2023/03/16 03:36:52;;;;;;;1.50;1.40;;;-1.90;97.30;;;;;;5044865;28;20409;-85
2023/03/16 03:39:18;;;;;;;1.37;1.27;;;-1.90;97.30;;;;;;5044406;28;20511;-85
2023/03/16 03:41:43;;;;;;;1.20;1.10;;;-1.80;97.30;;;;;;5062316;28;20231;-84
2023/03/16 03:44:08;;;;;;;1.20;1.10;;;-1.90;97.30;;;;;;5044243;28;20660;-86
2023/03/16 03:46:34;;;;;;;3.30;2.43;;;-1.90;97.30;;;;;;5044255;28;20233;-85
2023/03/16 03:49:02;;;;;;;2.13;1.97;;;-1.90;97.30;;;;;;5043965;28;20207;-84
2023/03/16 03:51:28;;;;;;;1.90;1.80;;;-1.90;97.30;;;;;;5043986;28;20224;-85
2023/03/16 03:53:54;;;;;;;1.00;0.90;;;-1.90;97.30;;;;;;5043850;28;20399;-82
2023/03/16 03:56:19;;;;;;;1.63;1.53;;;-1.90;97.30;;;;;;5043949;28;20190;-85
2023/03/16 03:58:45;;;;;;;1.10;1.00;;;-1.90;97.30;;;;;;5044407;28;20292;-84
2023/03/16 04:01:10;;;;;;;2.37;2.17;;;-1.90;97.30;;;;;;5039296;28;20222;-84
2023/03/16 04:03:36;;;;;;;1.83;1.73;;;-1.90;97.30;;;;;;5043316;28;20179;-84
2023/03/16 04:06:01;;;;;;;1.43;1.33;;;-1.90;97.30;;;;;;5062780;28;20175;-85
2023/03/16 04:08:27;;;;;;;1.63;1.53;;;-1.90;97.30;;;;;;5043765;28;20567;-86
2023/03/16 04:10:52;;;;;;;1.73;1.63;;;-1.90;97.30;;;;;;5043240;28;20214;-84
2023/03/16 04:13:18;;;;;;;1.10;1.00;;;-2.00;97.30;;;;;;5042463;28;20317;-84
2023/03/16 04:15:45;;;;;;;1.60;1.50;;;-2.00;97.30;;;;;;5050973;28;20175;-84
2023/03/16 04:18:11;;;;;;;2.40;2.20;;;-2.00;97.30;;;;;;5052050;28;20227;-83
2023/03/16 04:20:37;;;;;;;4.67;2.60;;;-2.00;97.30;;;;;;5066549;28;20197;-84
2023/03/16 04:23:03;;;;;;;1.10;1.00;;;-2.00;97.30;;;;;;5087959;28;20397;-85
2023/03/16 04:25:29;;;;;;;21.23;2.30;;;-2.00;97.30;;;;;;5063117;28;20520;-85
2023/03/16 04:27:55;;;;;;;1.10;1.00;;;-2.10;97.30;;;;;;5070502;28;20436;-85
2023/03/16 04:30:24;;;;;;;1.23;1.13;;;-2.10;97.30;;;;;;5062268;28;20175;-84
2023/03/16 04:32:50;;;;;;;3.60;1.80;;;-2.10;97.30;;;;;;5078619;28;20838;-85
2023/03/16 04:35:16;;;;;;;1.63;1.53;;;-2.10;97.30;;;;;;5062618;28;20521;-85
2023/03/16 04:37:42;;;;;;;1.03;0.93;;;-2.10;97.30;;;;;;5064578;28;20525;-83
2023/03/16 04:40:14;;;;;;;1.40;1.30;;;-2.10;97.30;;;;;;5062677;28;20179;-84
2023/03/16 04:42:40;;;;;;;1.27;1.17;;;-2.10;97.30;;;;;;5071577;28;20236;-84
2023/03/16 04:45:06;;;;;;;1.30;1.20;;;-2.10;97.30;;;;;;5067933;28;20965;-85
2023/03/16 04:47:32;;;;;;;1.20;1.10;;;-2.10;97.30;;;;;;5061717;28;20985;-85
2023/03/16 04:49:59;;;;;;;2.07;1.97;;;-2.10;97.30;;;;;;5061497;28;20421;-85
2023/03/16 04:52:25;;;;;;;1.60;1.50;;;-2.20;97.30;;;;;;5064524;28;20478;-84
2023/03/16 04:54:50;;;;;;;2.30;2.00;;;-2.20;97.30;;;;;;5062532;28;20399;-84
2023/03/16 04:57:18;;;;;;;6.20;1.83;;;-2.20;97.30;;;;;;5079746;28;20706;-84
2023/03/16 04:59:43;;;;;;;1.60;1.50;;;-2.20;97.30;;;;;;5062937;28;20379;-85
2023/03/16 05:02:11;;;;;;;1.80;1.70;;;-2.20;97.30;;;;;;5062472;28;20221;-85
2023/03/16 05:04:37;;;;;;;1.20;1.10;;;-2.20;97.30;;;;;;5063104;28;20165;-84
2023/03/16 05:07:02;;;;;;;1.55;1.50;;;-2.20;97.30;;;;;;5063174;28;20246;-84
2023/03/16 05:09:28;;;;;;;1.50;1.40;;;-2.20;97.30;;;;;;5062104;28;20193;-84
2023/03/16 05:11:53;;;;;;;1.40;1.30;;;-2.20;97.30;;;;;;5057864;28;20192;-86
2023/03/16 05:14:19;;;;;;;1.87;1.77;;;-2.20;97.30;;;;;;5067859;28;20156;-87
2023/03/16 05:16:44;;;;;;;1.20;1.10;;;-2.20;97.30;;;;;;5086627;28;20218;-85
2023/03/16 05:19:11;;;;;;;2.65;1.50;;;-2.20;97.30;;;;;;5058606;28;20227;-85
2023/03/16 05:21:37;;;;;;;1.47;1.37;;;-2.30;97.30;;;;;;5061683;28;20188;-84
2023/03/16 05:24:07;;;;;;;1.70;1.60;;;-2.30;97.30;;;;;;5057204;28;20416;-85
2023/03/16 05:26:33;;;;;;;5.25;2.20;;;-2.30;97.30;;;;;;5053545;28;20409;-84
2023/03/16 05:28:59;;;;;;;2.05;1.85;;;-2.40;97.30;;;;;;5057884;28;20443;-84
2023/03/16 05:31:27;;;;;;;1.70;1.60;;;-2.40;97.30;;;;;;5053318;28;20319;-84
2023/03/16 05:33:53;;;;;;;1.55;1.45;;;-2.40;97.30;;;;;;5057604;28;20432;-84
2023/03/16 05:36:19;;;;;;;2.20;2.00;;;-2.40;97.30;;;;;;5057933;28;20316;-84
2023/03/16 05:38:45;;;;;;;1.30;1.20;;;-2.40;97.30;;;;;;5058108;28;20201;-85
2023/03/16 05:41:10;;;;;;;3.50;3.30;;;-2.30;97.30;;;;;;5059976;28;20436;-84
2023/03/16 05:43:36;;;;;;;4.60;2.90;;;-2.30;97.30;;;;;;5059592;28;20607;-83
2023/03/16 05:46:02;;;;;;;1.70;1.60;;;-2.30;97.30;;;;;;5065202;28;20178;-85
2023/03/16 05:48:28;;;;;;;3.10;2.17;;;-2.30;97.30;;;;;;5061420;28;20178;-85
2023/03/16 05:50:54;;;;;;;1.17;1.07;;;-2.20;97.30;;;;;;5055052;28;20291;-84
2023/03/16 05:53:19;;;;;;;1.43;1.33;;;-2.20;97.30;;;;;;5063235;28;20206;-85
2023/03/16 05:55:51;;;;;;;1.27;1.17;;;-2.20;97.30;;;;;;5064502;28;20189;-85
2023/03/16 05:58:16;;;;;;;1.90;1.80;;;-2.10;97.30;;;;;;5064755;28;20224;-85
2023/03/16 06:00:54;;;;;;;2.10;1.93;;;-2.10;97.30;;;;;;5052666;28;20417;-85
2023/03/16 06:03:21;;;;;;;1.87;1.50;;;-2.10;97.30;;;;;;5057899;28;20178;-85
2023/03/16 06:05:47;;;;;;;2.70;1.97;;;-2.10;97.30;;;;;;5056167;28;20981;-85
2023/03/16 06:08:14;;;;;;;2.83;1.87;;;-2.00;97.30;;;;;;5057905;28;20413;-84
2023/03/16 06:10:39;;;;;;;1.40;1.30;;;-2.00;97.30;;;;;;5056815;28;20235;-85
2023/03/16 06:13:05;;;;;;;1.50;1.40;;;-2.00;97.30;;;;;;5055828;28;20507;-85
2023/03/16 06:15:33;;;;;;;1.77;1.60;;;-1.90;97.30;;;;;;5072191;28;20194;-85
2023/03/16 06:17:58;;;;;;;1.63;1.53;;;-1.90;97.30;;;;;;5056562;28;21327;-85
2023/03/16 06:20:24;;;;;;;1.47;1.47;;;-1.90;97.30;;;;;;5057262;28;20429;-85
2023/03/16 06:22:49;;;;;;;1.30;1.20;;;-1.80;97.30;;;;;;5072668;28;20194;-85
2023/03/16 06:25:15;;;;;;;3.53;2.60;;;-1.80;97.30;;;;;;5059227;28;20252;-85
2023/03/16 06:27:41;;;;;;;3.70;2.13;;;-1.70;97.30;;;;;;5051417;28;20667;-85
2023/03/16 06:30:10;;;;;;;1.10;1.00;;;-1.70;97.30;;;;;;5061870;28;20185;-85
2023/03/16 06:32:36;;;;;;;1.23;1.13;;;-1.60;97.30;;;;;;5063545;28;20471;-85
2023/03/16 06:35:03;;;;;;;1.87;1.77;;;-1.50;97.30;;;;;;5058220;28;20419;-85
2023/03/16 06:37:29;;;;;;;1.20;1.10;;;-1.40;97.30;;;;;;5070499;28;20871;-86
2023/03/16 06:39:54;;;;;;;1.30;1.20;;;-1.30;97.30;;;;;;5061417;28;20443;-83
2023/03/16 06:42:20;;;;;;;5.77;3.03;;;-1.20;97.30;;;;;;5067423;28;20219;-85
2023/03/16 06:44:46;;;;;;;1.77;1.67;;;-1.10;97.30;;;;;;5063496;28;20222;-82
2023/03/16 06:47:14;;;;;;;1.20;1.10;;;-1.00;97.30;;;;;;5069271;28;20194;-82
2023/03/16 06:49:40;;;;;;;1.20;1.10;;;-0.90;97.30;;;;;;5068697;28;20456;-84
2023/03/16 06:52:06;;;;;;;1.73;1.63;;;-0.80;97.30;;;;;;5064399;28;20461;-81
2023/03/16 06:54:33;;;;;;;1.30;1.20;;;-0.80;97.30;;;;;;5062775;28;20241;-82
2023/03/16 06:57:00;;;;;;;1.50;1.40;;;-0.70;97.30;;;;;;5076890;28;20175;-81
2023/03/16 06:59:25;;;;;;;1.30;1.20;;;-0.70;97.30;;;;;;5060158;28;20975;-82
2023/03/16 07:01:54;;;;;;;2.07;1.93;;;-0.60;97.30;;;;;;5068490;28;20496;-82
2023/03/16 07:04:20;;;;;;;1.90;1.80;;;-0.50;97.30;;;;;;5067848;28;20241;-81
2023/03/16 07:06:46;;;;;;;2.53;2.23;;;-0.30;97.30;;;;;;5068479;28;20205;-82
2023/03/16 07:09:11;;;;;;;2.50;1.53;;;-0.20;97.30;;;;;;5063911;28;20238;-82
2023/03/16 07:11:37;;;;;;;2.80;2.03;;;-0.10;97.30;;;;;;5067384;28;20190;-81
2023/03/16 07:14:03;;;;;;;1.40;1.27;;;0.10;97.30;;;;;;5065870;28;20241;-82
2023/03/16 07:16:29;;;;;;;1.60;1.50;;;0.20;97.30;;;;;;5071666;28;20237;-83
2023/03/16 07:18:55;;;;;;;1.67;1.50;;;0.30;97.30;;;;;;5070007;28;20230;-83
2023/03/16 07:21:20;;;;;;;1.70;1.60;;;0.40;97.30;;;;;;5064285;28;20280;-82
2023/03/16 07:23:46;;;;;;;1.47;1.33;;;0.60;97.30;;;;;;5068419;28;20426;-83
2023/03/16 07:26:12;;;;;;;1.27;1.17;;;0.70;97.30;;;;;;5068957;28;20254;-82
2023/03/16 07:28:38;;;;;;;4.43;2.83;;;0.90;97.30;;;;;;5065555;28;20444;-82
2023/03/16 07:31:05;;;;;;;3.10;2.43;;;1.00;97.30;;;;;;5070295;28;20961;-83
2023/03/16 07:33:32;;;;;;;2.40;2.20;;;1.10;97.30;;;;;;5064030;28;20210;-82
2023/03/16 07:35:58;;;;;;;1.57;1.47;;;1.20;97.30;;;;;;5071514;28;20390;-82
2023/03/16 07:38:24;;;;;;;1.30;1.20;;;1.30;97.30;;;;;;5071251;28;20456;-82
2023/03/16 07:40:51;;;;;;;1.60;1.50;;;1.30;97.30;;;;;;5065393;28;20421;-82
2023/03/16 07:43:16;;;;;;;2.43;2.23;;;1.50;97.30;;;;;;5068146;28;20625;-82
2023/03/16 07:45:47;;;;;;;5.43;1.83;;;1.50;97.30;;;;;;5067840;28;20460;-82
2023/03/16 07:48:12;;;;;;;1.63;1.60;;;1.70;97.30;;;;;;5064721;28;20277;-81
2023/03/16 07:50:38;;;;;;;2.13;1.47;;;1.80;97.30;;;;;;5065253;28;20459;-81
2023/03/16 07:53:04;;;;;;;3.33;1.77;;;2.00;97.30;;;;;;5061669;28;20191;-81
2023/03/16 07:55:30;;;;;;;1.53;1.43;;;2.20;97.30;;;;;;5060385;28;20175;-84
2023/03/16 07:57:56;;;;;;;1.77;1.67;;;2.30;97.30;;;;;;5065118;28;20440;-82
2023/03/16 08:00:22;;;;;;;1.53;1.43;;;2.50;97.30;;;;;;5066807;28;20432;-81
2023/03/16 08:02:48;;;;;;;6.93;1.80;;;2.70;97.30;;;;;;5064584;28;20182;-83
2023/03/16 08:05:15;;;;;;;1.67;1.57;;;2.80;97.30;;;;;;5064897;28;20476;-81
2023/03/16 08:07:40;;;;;;;1.20;1.10;;;3.00;97.30;;;;;;5062943;28;20524;-81
2023/03/16 08:10:06;;;;;;;5.83;3.77;;;3.10;97.30;;;;;;5062729;28;20269;-81
2023/03/16 08:12:32;;;;;;;3.00;2.20;;;3.30;97.30;;;;;;5063849;28;20206;-81
2023/03/16 08:14:58;;;;;;;1.27;1.17;;;3.40;97.30;;;;;;5055708;28;20425;-83
2023/03/16 08:17:24;;;;;;;1.30;1.20;;;3.60;97.30;;;;;;5062097;28;20480;-81
2023/03/16 08:19:49;;;;;;;8.80;1.80;;;3.70;97.30;;;;;;5063154;28;20171;-81
2023/03/16 08:22:16;;;;;;;1.50;1.40;;;3.80;97.30;;;;;;5063105;28;20179;-83
2023/03/16 08:24:41;;;;;;;3.43;2.60;;;3.90;97.30;;;;;;5061849;28;20605;-82
2023/03/16 08:27:07;;;;;;;3.40;2.30;;;3.90;97.30;;;;;;5061471;28;20243;-83
2023/03/16 08:29:33;;;;;;;4.60;2.10;;;4.10;97.30;;;;;;5061053;28;20190;-83
2023/03/16 08:31:59;;;;;;;1.20;1.10;;;4.30;97.30;;;;;;5062994;28;20217;-82
2023/03/16 08:34:25;;;;;;;1.20;1.10;;;4.40;97.30;;;;;;5063948;28;20454;-81
2023/03/16 08:36:51;;;;;;;1.50;1.40;;;4.50;97.30;;;;;;5061553;28;20410;-82
2023/03/16 08:39:17;;;;;;;1.40;1.30;;;4.70;97.30;;;;;;5079292;28;20413;-82
2023/03/16 08:41:44;;;;;;;1.57;1.43;;;4.80;97.30;;;;;;5080469;28;20415;-83
2023/03/16 08:44:10;;;;;;;2.40;1.53;;;4.90;97.30;;;;;;5053506;28;20312;-83
2023/03/16 08:46:35;;;;;;;1.40;1.30;;;5.10;97.30;;;;;;5060303;28;20440;-81
2023/03/16 08:49:01;;;;;;;2.00;1.83;;;5.20;97.30;;;;;;5060833;28;20210;-83
2023/03/16 08:51:30;;;;;;;9.93;2.40;;;5.40;97.10;;;;;;5062278;28;20198;-82
2023/03/16 08:53:55;;;;;;;19.23;3.27;;;5.50;96.40;;;;;;5062901;28;20467;-81
2023/03/16 08:56:21;;;;;;;1.43;1.33;;;5.60;95.10;;;;;;5063283;28;20417;-82
2023/03/16 08:58:47;;;;;;;2.90;1.37;;;5.70;94.80;;;;;;5062870;28;20245;-82
2023/03/16 09:01:16;;;;;;;1.20;1.10;;;5.80;94.90;;;;;;5069390;28;20435;-82
2023/03/16 09:03:45;;;;;;;1.10;1.00;;;5.80;93.60;;;;;;5062860;28;20182;-83
2023/03/16 09:06:12;;;;;;;1.10;1.00;;;5.90;93.90;;;;;;5065654;28;20786;-82
2023/03/16 09:08:39;;;;;;;1.30;1.20;;;6.00;93.50;;;;;;5063056;28;20452;-82
2023/03/16 09:11:11;;;;;;;1.37;1.27;;;6.10;93.00;;;;;;5062354;28;20460;-82
2023/03/16 09:13:37;;;;;;;4.50;2.00;;;6.20;93.10;;;;;;5061599;28;20443;-81
2023/03/16 09:16:04;;;;;;;1.43;1.33;;;6.30;93.00;;;;;;5062750;28;20447;-82
2023/03/16 09:18:30;;;;;;;9.80;3.23;;;6.40;92.50;;;;;;5061692;28;20495;-83
2023/03/16 09:21:01;;;;;;;1.00;0.90;;;6.40;92.10;;;;;;5062538;28;20417;-81
2023/03/16 09:23:28;;;;;;;2.03;1.90;;;6.50;91.00;;;;;;5061019;28;20182;-84
2023/03/16 09:25:58;;;;;;;1.10;1.00;;;6.50;90.30;;;;;;5078174;28;20421;-82
2023/03/16 09:28:26;;;;;;;1.17;1.07;;;6.50;89.60;;;;;;5063026;28;20757;-83
2023/03/16 09:30:54;;;;;;;1.50;1.40;;;6.50;89.80;;;;;;5061170;28;20554;-84
2023/03/16 09:33:20;;;;;;;1.00;0.90;;;6.60;88.70;;;;;;5060579;28;20465;-83
2023/03/16 09:35:46;;;;;;;1.30;1.20;;;6.60;87.60;;;;;;5060721;28;20451;-84
2023/03/16 09:38:12;;;;;;;1.10;1.00;;;6.70;88.40;;;;;;5063269;28;20425;-83
2023/03/16 09:40:40;;;;;;;1.40;1.33;;;6.80;88.30;;;;;;5064258;28;20170;-82
2023/03/16 09:43:17;;;;;;;1.00;0.90;;;6.80;85.70;;;;;;5060140;28;20451;-82
2023/03/16 09:45:47;;;;;;;1.57;1.47;;;6.80;86.00;;;;;;5058619;28;20408;-83
2023/03/16 09:48:16;;;;;;;1.23;1.20;;;6.90;85.90;;;;;;5063782;28;20469;-85
2023/03/16 09:50:42;;;;;;;1.00;0.90;;;6.80;85.50;;;;;;5058646;28;20424;-82
2023/03/16 09:53:28;;;;;;;1.20;1.10;;;6.90;87.00;;;;;;5058617;28;20420;-82
2023/03/16 09:56:00;;;;;;;2.40;1.90;;;7.10;85.80;;;;;;5077488;28;20451;-82
2023/03/16 09:58:26;;;;;;;1.33;1.23;;;7.20;86.00;;;;;;5059890;28;20456;-82
2023/03/16 10:01:02;;;;;;;1.00;0.90;;;7.40;86.00;;;;;;5061065;28;20408;-83
2023/03/16 10:03:48;;;;;;;1.90;1.20;;;7.50;85.30;;;;;;5079565;28;20657;-85
2023/03/16 10:06:15;;;;;;;1.27;1.17;;;7.50;83.80;;;;;;5078994;28;20401;-81
2023/03/16 10:08:44;;;;;;;1.10;1.00;;;7.60;83.90;;;;;;5078809;28;20437;-81
2023/03/16 10:11:34;;;;;;;2.37;2.17;;;7.70;83.90;;;;;;5057708;28;20467;-84
2023/03/16 10:14:10;;;;;;;2.37;1.50;;;7.80;83.70;;;;;;5076742;28;20451;-83
2023/03/16 10:16:45;;;;;;;1.03;0.93;;;7.80;82.80;;;;;;5061266;28;20798;-84
2023/03/16 10:19:37;;;;;;;1.00;0.90;;;7.80;84.10;;;;;;5057119;28;20499;-82
2023/03/16 10:22:18;;;;;;;2.40;1.83;;;8.00;85.10;;;;;;5057628;28;20425;-82
2023/03/16 10:25:11;;;;;;;1.10;1.00;;;8.10;83.70;;;;;;5083301;28;20470;-84
2023/03/16 10:27:40;;;;;;;1.17;1.07;;;8.10;83.20;;;;;;5074382;28;20863;-82
2023/03/16 10:30:20;;;;;;;1.00;0.90;;;8.20;85.10;;;;;;5060843;28;20404;-83
2023/03/16 10:32:47;;;;;;;1.30;1.20;;;8.40;83.00;;;;;;5060583;28;20453;-83
2023/03/16 10:35:50;;;;;;;0.90;0.80;;;8.50;83.40;;;;;;5056811;28;20418;-82
2023/03/16 10:38:38;;;;;;;2.13;1.07;;;8.60;82.30;;;;;;5065477;28;20440;-82
2023/03/16 10:41:19;;;;;;;1.20;1.10;;;8.70;79.60;;;;;;5061021;28;20427;-82
2023/03/16 10:43:54;;;;;;;1.00;0.90;;;8.70;79.20;;;;;;5060822;28;20804;-79
2023/03/16 10:46:21;;;;;;;1.20;1.10;;;8.60;78.80;;;;;;5061496;28;20444;-82
2023/03/16 10:49:00;;;;;;;1.23;1.13;;;8.40;78.60;;;;;;5063698;28;20502;-85
2023/03/16 10:51:29;;;;;;;3.70;1.63;;;8.50;79.00;;;;;;5062632;28;20479;-82
2023/03/16 10:54:06;;;;;;;1.10;1.00;;;8.50;78.90;;;;;;5058085;28;20930;-84
2023/03/16 10:56:34;;;;;;;1.10;1.00;;;8.60;77.80;;;;;;5058669;28;20210;-83
2023/03/16 10:59:01;;;;;;;1.10;1.00;;;8.50;78.50;;;;;;5058228;28;20527;-83
2023/03/16 11:01:28;;;;;;;1.90;1.73;;;8.40;77.90;;;;;;5052547;28;20425;-81
2023/03/16 11:03:57;;;;;;;1.00;0.90;;;8.50;78.80;;;;;;5056211;28;20220;-84
2023/03/16 11:06:32;;;;;;;1.20;1.10;;;8.50;76.70;;;;;;5059875;28;20421;-82
2023/03/16 11:09:11;;;;;;;1.10;1.00;;;8.70;77.30;;;;;;5054829;28;20441;-78
2023/03/16 11:11:37;;;;;;;1.27;1.17;;;8.70;74.90;;;;;;5056425;28;20723;-80
2023/03/16 11:14:09;;;;;;;1.10;1.00;;;8.70;75.70;;;;;;5054382;28;20800;-82
2023/03/16 11:16:46;;;;;;;1.67;1.57;;;8.90;75.40;;;;;;5055929;28;20266;-84
2023/03/16 11:19:20;;;;;;;1.00;0.90;;;9.00;75.70;;;;;;5072066;28;20465;-82
2023/03/16 11:21:55;;;;;;;1.10;1.00;;;9.00;73.10;;;;;;5061007;28;20421;-84
2023/03/16 11:24:52;;;;;;;1.77;1.20;;;9.10;74.40;;;;;;5062948;28;20643;-83
2023/03/16 11:27:31;;;;;;;1.93;1.43;;;9.00;74.00;;;;;;5080287;28;20425;-83
2023/03/16 11:30:00;;;;;;;1.00;0.90;;;9.10;75.20;;;;;;5055795;28;20426;-85
2023/03/16 11:32:30;;;;;;;1.10;1.00;;;9.20;75.80;;;;;;5063875;28;20536;-83
2023/03/16 11:34:56;;;;;;;1.27;1.17;;;9.30;74.80;;;;;;5062173;28;20414;-82
2023/03/16 11:38:09;;;;;;;1.10;1.00;;;9.30;75.50;;;;;;5063121;28;20445;-85
2023/03/16 11:41:00;;;;;;;1.57;1.47;;;9.50;76.70;;;;;;5068750;28;20542;-82
2023/03/16 11:43:51;;;;;;;1.00;0.90;;;9.70;76.10;;;;;;5061998;28;20409;-83
2023/03/16 11:46:38;;;;;;;1.23;1.13;;;9.90;75.10;;;;;;5064048;28;20440;-82
2023/03/16 11:49:29;;;;;;;1.77;1.07;;;9.90;73.40;;;;;;5065792;28;20440;-81
2023/03/16 11:52:16;;;;;;;1.10;1.00;;;10.00;75.50;;;;;;5071153;28;20851;-85
2023/03/16 11:54:54;;;;;;;1.10;1.00;;;10.00;73.00;;;;;;5071049;28;20423;-82
2023/03/16 11:57:37;;;;;;;1.10;1.00;;;10.00;73.60;;;;;;5077921;28;20322;-81
2023/03/16 12:00:25;;;;;;;1.17;1.07;;;10.10;74.50;;;;;;5087305;28;20432;-82
2023/03/16 12:03:11;;;;;;;1.10;1.00;;;10.20;73.20;;;;;;5075751;28;20413;-82
2023/03/16 12:06:19;;;;;;;1.00;0.90;;;10.20;73.70;;;;;;5049897;28;20523;-79
2023/03/16 12:08:46;;;;;;;3.07;1.93;;;10.40;73.50;;;;;;5055663;28;20433;-83
2023/03/16 12:11:22;;;;;;;1.33;1.27;;;10.50;73.70;;;;;;5058402;28;20847;-78
2023/03/16 12:14:14;;;;;;;1.10;1.00;;;10.60;72.60;;;;;;5056580;28;20571;-79
2023/03/16 12:16:56;;;;;;;1.00;0.90;;;10.80;74.00;;;;;;5055547;28;20425;-81
2023/03/16 12:19:32;;;;;;;1.95;1.10;;;11.00;73.30;;;;;;5061407;28;20480;-83
2023/03/16 12:22:25;;;;;;;0.90;0.80;;;11.20;72.30;;;;;;5057735;28;20418;-79
2023/03/16 12:24:52;;;;;;;1.30;1.20;;;11.30;69.00;;;;;;5060531;28;20419;-84
2023/03/16 12:27:30;;;;;;;0.93;0.83;;;11.40;70.90;;;;;;5061838;28;20426;-82
2023/03/16 12:30:05;;;;;;;1.20;1.10;;;11.50;71.40;;;;;;5053511;28;20424;-80
2023/03/16 12:32:52;;;;;;;2.50;1.10;;;11.40;69.50;;;;;;5077152;28;20456;-81
2023/03/16 12:35:44;;;;;;;1.47;1.37;;;11.60;71.20;;;;;;5058033;28;20691;-82
2023/03/16 12:38:36;;;;;;;1.27;1.10;;;11.70;68.70;;;;;;5071332;28;20939;-83
2023/03/16 12:41:37;;;;;;;1.00;0.90;;;11.60;66.40;;;;;;5054761;28;20425;-79
2023/03/16 12:44:37;;;;;;;1.00;0.90;;;11.40;66.90;;;;;;5061435;28;20410;-82
2023/03/16 12:47:18;;;;;;;2.90;1.53;;;11.30;67.00;;;;;;5069285;28;20460;-78
2023/03/16 12:49:44;;;;;;;1.00;0.90;;;11.40;68.10;;;;;;5054899;28;20438;-83
2023/03/16 12:52:12;;;;;;;1.00;0.90;;;11.40;69.20;;;;;;5046986;28;20475;-82
2023/03/16 12:54:52;;;;;;;1.93;1.87;;;11.60;69.10;;;;;;5054504;28;20445;-85
2023/03/16 12:57:19;;;;;;;1.30;1.20;;;11.90;71.10;;;;;;5062788;28;20514;-84
2023/03/16 12:59:49;;;;;;;1.30;1.20;;;12.00;70.30;;;;;;5057125;28;20826;-82
2023/03/16 13:02:28;;;;;;;1.63;1.53;;;12.20;71.20;;;;;;5063811;28;20429;-85
2023/03/16 13:04:59;;;;;;;1.47;1.40;;;12.30;69.20;;;;;;5051697;28;20932;-86